Time;durP1;ratioP1;P1;durP2;ratioP2;P2;SDS_P1;SDS_P2;PMS_P1;PMS_P2;Temp;Humidity;BMP_temperature;BMP_pressure;BME280_temperature;BME280_humidity;BME280_pressure;Samples;Min_cycle;Max_cycle;Signal;HPM_P1;HPM_P2
2023/11/21 00:01:43;;;;;;;7.70;6.30;;;;;;;0.07;100.00;100317.44;109487;1253;62653;-79
2023/11/21 00:04:11;;;;;;;7.70;6.80;;;;;;;0.06;100.00;100320.90;109555;1253;71561;-79
2023/11/21 00:06:39;;;;;;;8.80;6.30;;;;;;;0.05;100.00;100326.95;109539;1253;59571;-77
2023/11/21 00:09:08;;;;;;;7.50;5.80;;;;;;;0.04;100.00;100332.10;109474;1253;60082;-78
2023/11/21 00:16:05;;;;;;;7.90;5.40;;;;;;;0.08;100.00;100337.17;109576;1253;63763;-79
2023/11/21 00:18:33;;;;;;;16.60;8.40;;;;;;;0.13;100.00;100343.09;109534;1253;70225;-78
2023/11/21 00:21:00;;;;;;;17.30;8.80;;;;;;;0.14;100.00;100342.89;109577;1253;60879;-77
2023/11/21 00:23:28;;;;;;;11.00;7.30;;;;;;;0.13;100.00;100343.77;109487;1253;58814;-78
2023/11/21 00:25:55;;;;;;;11.90;6.90;;;;;;;0.15;100.00;100345.96;109568;1253;73802;-78
2023/11/21 00:28:23;;;;;;;11.30;7.40;;;;;;;0.16;100.00;100343.89;109627;1253;63592;-77
2023/11/21 00:30:50;;;;;;;8.30;6.50;;;;;;;0.14;100.00;100344.95;109444;1253;72518;-78
2023/11/21 00:33:18;;;;;;;9.90;8.00;;;;;;;0.11;100.00;100344.16;109512;1253;60933;-78
2023/11/21 00:35:46;;;;;;;7.40;5.50;;;;;;;0.09;100.00;100344.73;109521;1253;58431;-79
2023/11/21 00:38:13;;;;;;;8.40;6.50;;;;;;;0.07;100.00;100348.20;109479;1253;74025;-78
2023/11/21 00:40:41;;;;;;;7.20;6.10;;;;;;;0.04;100.00;100350.33;109471;1253;64798;-78
2023/11/21 00:43:09;;;;;;;7.30;5.60;;;;;;;0.02;100.00;100348.83;109474;1253;71345;-78
2023/11/21 00:45:37;;;;;;;7.60;5.90;;;;;;;0.02;100.00;100348.83;109543;1253;59954;-79
2023/11/21 00:48:08;;;;;;;9.70;6.60;;;;;;;0.00;100.00;100353.34;109523;1253;58944;-78
2023/11/21 00:50:35;;;;;;;7.20;5.90;;;;;;;0.00;100.00;100355.05;109571;1253;72983;-78
2023/11/21 00:53:03;;;;;;;7.90;5.80;;;;;;;0.03;100.00;100358.07;109431;1253;63643;-79
2023/11/21 00:55:31;;;;;;;8.70;5.80;;;;;;;0.06;100.00;100356.47;109467;1253;71614;-78
2023/11/21 00:57:59;;;;;;;7.00;6.20;;;;;;;0.09;100.00;100357.10;109443;1253;59950;-80
2023/11/21 01:00:27;;;;;;;9.80;6.60;;;;;;;0.10;100.00;100354.85;109539;1253;59999;-79
2023/11/21 01:02:55;;;;;;;7.30;5.50;;;;;;;0.08;100.00;100358.16;109553;1253;73974;-78
2023/11/21 01:05:22;;;;;;;8.70;6.80;;;;;;;0.07;100.00;100356.13;109583;1253;62252;-78
2023/11/21 01:07:50;;;;;;;8.40;6.20;;;;;;;0.09;100.00;100357.09;109519;1253;72681;-78
2023/11/21 01:10:17;;;;;;;7.70;6.20;;;;;;;0.12;100.00;100352.56;109361;1253;60096;-80
2023/11/21 01:12:45;;;;;;;9.00;6.00;;;;;;;0.11;100.00;100353.27;109582;1253;58801;-79
2023/11/21 01:15:13;;;;;;;7.80;6.30;;;;;;;0.10;100.00;100356.90;109433;1253;74283;-79
2023/11/21 01:17:41;;;;;;;11.90;6.60;;;;;;;0.10;100.00;100360.85;109484;1253;62565;-79
2023/11/21 01:20:12;;;;;;;8.40;6.30;;;;;;;0.14;100.00;100368.33;109435;1253;71429;-79
2023/11/21 01:22:41;;;;;;;8.00;6.10;;;;;;;0.17;100.00;100372.55;109536;1253;59745;-79
2023/11/21 01:25:08;;;;;;;8.80;6.40;;;;;;;0.17;100.00;100371.20;109619;1253;60002;-79
2023/11/21 01:27:36;;;;;;;6.90;5.60;;;;;;;0.15;100.00;100368.48;109439;1253;74135;-79
2023/11/21 01:30:08;;;;;;;8.30;6.60;;;;;;;0.15;100.00;100374.33;109561;1252;62312;-79
2023/11/21 01:35:42;;;;;;;10.10;6.20;;;;;;;0.13;100.00;100377.65;106127;1289;601028;-80
2023/11/21 01:38:09;;;;;;;6.70;5.90;;;;;;;0.08;100.00;100375.51;105548;1257;59547;-80
2023/11/21 01:40:37;;;;;;;7.80;6.80;;;;;;;0.05;100.00;100373.70;105821;1257;59571;-78
2023/11/21 01:43:04;;;;;;;8.70;6.30;;;;;;;0.06;100.00;100373.83;105946;1257;72288;-80
2023/11/21 01:45:33;;;;;;;7.40;6.20;;;;;;;0.09;100.00;100376.00;105500;1262;63858;-81
2023/11/21 01:48:00;;;;;;;9.70;5.90;;;;;;;0.09;100.00;100379.95;105254;1262;243099;-81
2023/11/21 01:50:28;;;;;;;8.20;6.40;;;;;;;0.09;100.00;100381.52;105567;1256;61261;-79
2023/11/21 01:52:55;;;;;;;7.90;5.90;;;;;;;0.09;100.00;100385.97;105635;1258;60354;-79
2023/11/21 01:55:22;;;;;;;11.80;6.40;;;;;;;0.09;100.00;100388.90;105596;1258;72289;-80
2023/11/21 01:57:57;;;;;;;7.50;6.50;;;;;;;0.08;100.00;100389.79;105565;1259;63868;-80
2023/11/21 02:00:26;;;;;;;8.90;6.50;;;;;;;0.08;100.00;100391.33;105609;1257;71347;-81
2023/11/21 02:02:53;;;;;;;11.20;7.40;;;;;;;0.06;100.00;100387.73;105549;1256;59737;-79
2023/11/21 02:05:21;;;;;;;8.10;6.80;;;;;;;0.03;100.00;100389.54;105980;1257;59624;-82
2023/11/21 02:07:48;;;;;;;10.00;6.20;;;;;;;0.02;100.00;100391.45;105962;1254;71567;-79
2023/11/21 02:10:16;;;;;;;7.80;6.10;;;;;;;0.01;100.00;100396.80;105890;1251;62420;-81
2023/11/21 02:12:44;;;;;;;10.00;6.30;;;;;;;-0.02;100.00;100395.98;105937;1255;72400;-82
2023/11/21 02:15:14;;;;;;;7.60;6.00;;;;;;;-0.02;100.00;100395.30;105909;1251;59681;-81
2023/11/21 02:17:46;;;;;;;7.60;6.30;;;;;;;-0.01;100.00;100395.11;106073;1251;60351;-81
2023/11/21 02:20:15;;;;;;;7.70;6.10;;;;;;;0.00;100.00;100395.45;105961;1253;72909;-81
2023/11/21 02:23:04;;;;;;;6.60;5.90;;;;;;;0.02;100.00;100398.14;106101;1253;62451;-81
2023/11/21 02:25:33;;;;;;;8.20;6.90;;;;;;;-0.01;100.00;100400.25;106011;1251;71238;-80
2023/11/21 02:28:01;;;;;;;8.60;6.50;;;;;;;-0.04;100.00;100408.57;106874;1249;59730;-79
2023/11/21 02:30:33;;;;;;;8.30;6.90;;;;;;;-0.06;100.00;100411.70;106333;1250;61537;-78
2023/11/21 02:33:01;;;;;;;8.90;6.30;;;;;;;-0.06;100.00;100408.11;105946;1256;72872;-79
2023/11/21 02:35:28;;;;;;;9.60;7.10;;;;;;;-0.08;100.00;100406.42;106085;1253;63782;-80
2023/11/21 02:37:55;;;;;;;10.10;6.30;;;;;;;-0.10;100.00;100407.15;105993;1254;71316;-80
2023/11/21 02:40:24;;;;;;;9.00;6.60;;;;;;;-0.10;100.00;100411.97;106098;1254;60978;-79
2023/11/21 02:42:51;;;;;;;9.50;5.90;;;;;;;-0.09;100.00;100414.17;106040;1251;60159;-79
2023/11/21 02:45:24;;;;;;;8.30;6.20;;;;;;;-0.09;100.00;100415.20;105999;1253;72896;-81
2023/11/21 02:47:53;;;;;;;8.00;6.10;;;;;;;-0.12;100.00;100420.58;106005;1253;63556;-79
2023/11/21 02:50:20;;;;;;;10.80;8.00;;;;;;;-0.13;100.00;100424.40;105928;1253;71340;-81
2023/11/21 02:52:47;;;;;;;8.70;6.60;;;;;;;-0.14;100.00;100429.73;105841;1256;61160;-80
2023/11/21 02:55:14;;;;;;;9.40;7.20;;;;;;;-0.15;100.00;100436.80;106031;1251;60117;-79
2023/11/21 02:57:41;;;;;;;10.80;7.20;;;;;;;-0.15;100.00;100441.27;106050;1251;73006;-79
2023/11/21 03:00:09;;;;;;;8.20;6.20;;;;;;;-0.12;100.00;100445.15;105966;1250;61388;-79
2023/11/21 03:02:39;;;;;;;8.10;6.40;;;;;;;-0.11;100.00;100447.02;105916;1254;72629;-79
2023/11/21 03:05:06;;;;;;;11.00;7.40;;;;;;;-0.10;100.00;100449.24;105903;1255;61478;-80
2023/11/21 03:07:33;;;;;;;7.30;6.50;;;;;;;-0.12;100.00;100452.36;105983;1251;60333;-79
2023/11/21 03:10:00;;;;;;;8.80;6.50;;;;;;;-0.13;100.00;100455.14;105985;1251;72618;-81
2023/11/21 03:12:28;;;;;;;6.80;5.90;;;;;;;-0.12;100.00;100454.10;106950;1253;63887;-79
2023/11/21 03:14:55;;;;;;;6.40;5.50;;;;;;;-0.10;100.00;100456.46;106552;1252;71225;-78
2023/11/21 03:17:22;;;;;;;7.60;6.40;;;;;;;-0.10;100.00;100464.20;106305;1256;59570;-80
2023/11/21 03:19:49;;;;;;;9.50;7.40;;;;;;;-0.11;100.00;100473.14;106184;1254;59592;-79
2023/11/21 03:22:16;;;;;;;9.80;6.30;;;;;;;-0.11;100.00;100481.39;106258;1251;72967;-77
2023/11/21 03:24:44;;;;;;;7.50;5.50;;;;;;;-0.14;100.00;100484.71;106444;1253;62483;-79
2023/11/21 03:27:12;;;;;;;9.90;6.50;;;;;;;-0.18;100.00;100490.63;106110;1253;72616;-77
2023/11/21 03:29:39;;;;;;;8.70;6.80;;;;;;;-0.24;100.00;100492.79;106043;1253;61063;-78
2023/11/21 03:32:06;;;;;;;8.80;6.00;;;;;;;-0.29;100.00;100493.73;106035;1253;59625;-79
2023/11/21 03:34:58;;;;;;;8.30;6.80;;;;;;;-0.35;100.00;100495.05;106000;1249;73092;-79
2023/11/21 03:37:27;;;;;;;6.70;5.70;;;;;;;-0.38;100.00;100494.59;106023;1253;63855;-80
2023/11/21 03:39:56;;;;;;;11.30;6.40;;;;;;;-0.37;100.00;100496.98;105993;1253;72668;-80
2023/11/21 03:42:23;;;;;;;8.80;6.50;;;;;;;-0.36;100.00;100499.52;106037;1251;60880;-80
2023/11/21 03:44:51;;;;;;;10.30;6.70;;;;;;;-0.36;100.00;100502.80;106085;1253;59596;-79
2023/11/21 03:47:19;;;;;;;8.20;6.60;;;;;;;-0.36;100.00;100507.61;106040;1251;71573;-79
2023/11/21 03:49:46;;;;;;;11.20;7.40;;;;;;;-0.39;100.00;100510.74;105987;1252;63820;-79
2023/11/21 03:52:15;;;;;;;9.10;6.90;;;;;;;-0.40;100.00;100509.56;106804;1253;72639;-76
2023/11/21 03:54:43;;;;;;;9.10;6.70;;;;;;;-0.40;100.00;100510.08;106719;1251;59659;-78
2023/11/21 03:57:11;;;;;;;8.40;6.60;;;;;;;-0.40;100.00;100518.15;106209;1253;60328;-78
2023/11/21 03:59:46;;;;;;;10.70;7.20;;;;;;;-0.41;100.00;100523.14;106079;1251;71471;-80
2023/11/21 04:02:13;;;;;;;10.30;6.50;;;;;;;-0.40;100.00;100526.73;106101;1253;63525;-79
2023/11/21 04:04:40;;;;;;;8.30;6.30;;;;;;;-0.40;100.00;100528.63;106022;1251;71512;-76
2023/11/21 04:07:07;;;;;;;10.30;7.70;;;;;;;-0.40;100.00;100528.63;106306;1253;61224;-78
2023/11/21 04:09:36;;;;;;;9.20;7.40;;;;;;;-0.39;100.00;100525.86;106443;1251;60247;-79
2023/11/21 04:12:03;;;;;;;10.90;8.10;;;;;;;-0.39;100.00;100527.92;106756;1253;70495;-77
2023/11/21 04:14:30;;;;;;;9.10;8.10;;;;;;;-0.39;100.00;100534.63;106219;1253;63836;-79
2023/11/21 04:16:57;;;;;;;9.40;7.60;;;;;;;-0.39;100.00;100535.65;106096;1254;72464;-78
2023/11/21 04:19:24;;;;;;;11.20;7.90;;;;;;;-0.39;100.00;100537.37;106534;1253;61171;-78
2023/11/21 04:21:51;;;;;;;10.10;7.80;;;;;;;-0.39;100.00;100537.87;107931;1251;59512;-78
2023/11/21 04:24:21;;;;;;;18.40;8.80;;;;;;;-0.37;100.00;100536.80;108939;1250;72532;-78
2023/11/21 04:26:48;;;;;;;11.20;8.80;;;;;;;-0.36;100.00;100538.33;106604;1250;62418;-79
2023/11/21 04:29:15;;;;;;;11.20;8.60;;;;;;;-0.33;100.00;100540.36;105983;1251;71186;-78
2023/11/21 04:32:04;;;;;;;10.20;7.50;;;;;;;-0.29;100.00;100541.66;106090;1253;59740;-79
2023/11/21 04:34:32;;;;;;;11.60;9.10;;;;;;;-0.29;100.00;100549.40;105462;1257;60312;-78
2023/11/21 04:36:59;;;;;;;13.40;9.50;;;;;;;-0.31;100.00;100554.23;105452;1258;72870;-79
2023/11/21 04:39:26;;;;;;;12.00;9.80;;;;;;;-0.28;100.00;100561.22;105626;1260;62263;-79
2023/11/21 04:41:53;;;;;;;14.40;10.00;;;;;;;-0.22;100.00;100565.09;105334;1259;71217;-79
2023/11/21 04:44:20;;;;;;;10.30;8.20;;;;;;;-0.24;100.00;100564.25;105589;1257;59756;-79
2023/11/21 04:46:47;;;;;;;12.50;8.60;;;;;;;-0.28;100.00;100569.48;105375;1257;60352;-78
2023/11/21 04:49:15;;;;;;;11.10;8.50;;;;;;;-0.36;100.00;100570.45;105434;1262;75710;-80
2023/11/21 04:51:42;;;;;;;9.70;7.90;;;;;;;-0.38;100.00;100570.83;105419;1259;62395;-80
2023/11/21 04:54:10;;;;;;;12.60;8.60;;;;;;;-0.40;100.00;100568.81;105483;1260;70937;-81
2023/11/21 04:56:37;;;;;;;11.20;8.70;;;;;;;-0.44;100.00;100572.46;105617;1260;61163;-78
2023/11/21 04:59:04;;;;;;;10.60;8.60;;;;;;;-0.48;100.00;100572.18;105446;1259;59606;-77
2023/11/21 05:01:32;;;;;;;11.50;9.30;;;;;;;-0.52;100.00;100574.48;105455;1260;73176;-82
2023/11/21 05:03:58;;;;;;;14.10;10.50;;;;;;;-0.52;100.00;100580.84;105596;1260;63584;-79
2023/11/21 05:06:25;;;;;;;12.00;9.00;;;;;;;-0.50;100.00;100582.35;105918;1251;72673;-80
2023/11/21 05:08:52;;;;;;;15.30;10.60;;;;;;;-0.49;100.00;100587.84;105947;1253;60950;-80
2023/11/21 05:11:32;;;;;;;14.50;10.40;;;;;;;-0.46;100.00;100593.63;105967;1251;60026;-80
2023/11/21 05:14:01;;;;;;;12.50;9.40;;;;;;;-0.46;100.00;100593.98;106049;1252;73086;-79
2023/11/21 05:16:28;;;;;;;12.60;9.50;;;;;;;-0.48;100.00;100601.55;106198;1255;63785;-80
2023/11/21 05:19:00;;;;;;;12.10;9.40;;;;;;;-0.50;100.00;100607.77;106044;1252;72657;-79
2023/11/21 05:21:29;;;;;;;11.80;9.40;;;;;;;-0.52;100.00;100609.86;106063;1253;59767;-80
2023/11/21 05:23:56;;;;;;;10.30;8.20;;;;;;;-0.48;100.00;100605.86;106053;1253;59934;-79
2023/11/21 05:26:23;;;;;;;10.60;8.40;;;;;;;-0.43;100.00;100611.95;106062;1253;71524;-80
2023/11/21 05:28:50;;;;;;;12.00;9.40;;;;;;;-0.38;100.00;100614.64;106100;1253;63572;-78
2023/11/21 05:31:17;;;;;;;12.80;9.00;;;;;;;-0.38;100.00;100622.52;106031;1251;71663;-78
2023/11/21 05:33:44;;;;;;;11.00;9.00;;;;;;;-0.38;100.00;100624.59;106103;1253;59665;-80
2023/11/21 05:36:11;;;;;;;11.30;9.10;;;;;;;-0.37;100.00;100632.13;106036;1251;60149;-79
2023/11/21 05:38:39;;;;;;;11.70;9.60;;;;;;;-0.36;100.00;100632.98;106015;1251;72798;-80
2023/11/21 05:41:06;;;;;;;10.50;9.20;;;;;;;-0.34;100.00;100636.55;106021;1251;62409;-80
2023/11/21 05:43:35;;;;;;;11.80;8.90;;;;;;;-0.30;100.00;100642.34;105970;1251;71498;-79
2023/11/21 05:46:03;;;;;;;11.30;9.60;;;;;;;-0.30;100.00;100640.78;106816;1256;61105;-78
2023/11/21 05:48:31;;;;;;;9.70;8.40;;;;;;;-0.30;100.00;100645.95;106379;1250;60516;-80
2023/11/21 05:50:59;;;;;;;12.30;9.40;;;;;;;-0.35;100.00;100651.16;106093;1251;73880;-79
2023/11/21 05:53:25;;;;;;;10.90;9.20;;;;;;;-0.41;100.00;100654.85;106031;1253;63782;-80
2023/11/21 05:55:52;;;;;;;15.40;10.00;;;;;;;-0.45;100.00;100661.26;106149;1253;72376;-79
2023/11/21 05:58:19;;;;;;;12.10;8.50;;;;;;;-0.45;100.00;100667.80;105987;1253;61214;-79
2023/11/21 06:00:47;;;;;;;13.70;9.90;;;;;;;-0.44;100.00;100672.08;106040;1252;60482;-80
2023/11/21 06:03:15;;;;;;;12.20;10.00;;;;;;;-0.40;100.00;100674.94;106111;1253;73832;-79
2023/11/21 06:05:42;;;;;;;13.90;10.00;;;;;;;-0.36;100.00;100680.73;106013;1253;63821;-79
2023/11/21 06:08:10;;;;;;;14.40;9.40;;;;;;;-0.33;100.00;100684.31;106019;1254;72500;-79
2023/11/21 06:10:37;;;;;;;13.00;9.20;;;;;;;-0.30;100.00;100688.55;105954;1254;61078;-81
2023/11/21 06:13:07;;;;;;;12.40;9.80;;;;;;;-0.28;100.00;100692.29;106058;1252;60552;-80
2023/11/21 06:15:34;;;;;;;12.50;9.00;;;;;;;-0.28;100.00;100686.45;106000;1251;73562;-79
2023/11/21 06:18:01;;;;;;;14.20;10.30;;;;;;;-0.27;100.00;100687.13;106079;1252;62639;-80
2023/11/21 06:20:28;;;;;;;13.20;10.10;;;;;;;-0.23;100.00;100683.45;106050;1252;71668;-79
2023/11/21 06:22:55;;;;;;;12.90;10.70;;;;;;;-0.21;100.00;100683.27;105998;1251;60444;-79
2023/11/21 06:25:22;;;;;;;15.10;10.20;;;;;;;-0.22;100.00;100689.96;106055;1251;60445;-80
2023/11/21 06:27:51;;;;;;;17.30;11.10;;;;;;;-0.22;100.00;100693.06;106031;1252;73787;-81
2023/11/21 06:30:19;;;;;;;15.00;11.20;;;;;;;-0.19;100.00;100700.08;105943;1253;63823;-81
2023/11/21 06:32:46;;;;;;;17.10;11.50;;;;;;;-0.20;100.00;100699.39;106102;1251;72460;-80
2023/11/21 06:35:15;;;;;;;17.70;12.90;;;;;;;-0.20;100.00;100697.86;106230;1251;60948;-79
2023/11/21 06:37:47;;;;;;;16.70;12.40;;;;;;;-0.19;100.00;100693.22;106318;1253;60482;-80
2023/11/21 06:40:18;;;;;;;15.20;10.70;;;;;;;-0.21;100.00;100700.60;105963;1253;73787;-81
2023/11/21 06:42:46;;;;;;;15.80;10.90;;;;;;;-0.22;100.00;100703.38;106122;1253;64335;-80
2023/11/21 06:45:14;;;;;;;15.00;11.10;;;;;;;-0.17;100.00;100708.48;106105;1251;71426;-79
2023/11/21 06:47:42;;;;;;;13.60;10.70;;;;;;;-0.14;100.00;100706.54;106041;1251;60476;-81
2023/11/21 06:50:09;;;;;;;14.90;10.00;;;;;;;-0.11;100.00;100703.89;105968;1251;60456;-82
2023/11/21 06:52:36;;;;;;;14.60;10.70;;;;;;;-0.07;100.00;100698.36;105961;1253;73644;-80
2023/11/21 06:55:04;;;;;;;16.70;10.10;;;;;;;-0.02;100.00;100703.61;106001;1254;62605;-80
2023/11/21 06:57:32;;;;;;;14.40;10.40;;;;;;;0.04;100.00;100709.69;105982;1251;72676;-79
2023/11/21 06:59:59;;;;;;;13.20;10.00;;;;;;;0.11;100.00;100710.79;106017;1253;61178;-79
2023/11/21 07:02:27;;;;;;;13.80;10.30;;;;;;;0.17;100.00;100717.58;106024;1254;60431;-80
2023/11/21 07:04:54;;;;;;;15.10;10.30;;;;;;;0.17;100.00;100714.29;106052;1252;72846;-80
2023/11/21 07:07:21;;;;;;;14.90;10.20;;;;;;;0.22;100.00;100715.25;106107;1253;63756;-79
2023/11/21 07:12:26;;;;;;;12.00;9.50;;;;;;;0.39;100.00;100712.75;104708;1289;612762;-79
2023/11/21 07:14:53;;;;;;;12.90;9.60;;;;;;;0.42;100.00;100710.29;105904;1266;60834;-80
2023/11/21 07:17:23;;;;;;;13.40;9.10;;;;;;;0.48;100.00;100711.57;105652;1260;59404;-78
2023/11/21 07:19:49;;;;;;;11.50;8.90;;;;;;;0.51;100.00;100717.02;105679;1255;71969;-77
2023/11/21 07:22:21;;;;;;;13.40;8.20;;;;;;;0.46;100.00;100720.73;105679;1259;63615;-77
2023/11/21 07:24:50;;;;;;;13.80;8.90;;;;;;;0.38;100.00;100720.84;105497;1255;262081;-77
2023/11/21 07:27:18;;;;;;;11.20;8.50;;;;;;;0.32;100.00;100719.73;106072;1256;60850;-76
2023/11/21 07:29:45;;;;;;;12.80;9.10;;;;;;;0.32;100.00;100722.33;105960;1256;59361;-76
2023/11/21 07:32:13;;;;;;;15.80;10.30;;;;;;;0.36;100.00;100723.29;105969;1252;72244;-76
2023/11/21 07:34:44;;;;;;;13.30;9.10;;;;;;;0.43;100.00;100721.45;105996;1256;63907;-78
2023/11/21 07:37:10;;;;;;;10.80;8.70;;;;;;;0.51;100.00;100721.66;105944;1257;71420;-77
2023/11/21 07:39:41;;;;;;;11.70;9.00;;;;;;;0.58;100.00;100728.60;105985;1256;60128;-79
2023/11/21 07:42:10;;;;;;;13.90;9.10;;;;;;;0.63;100.00;100724.23;105890;1252;59982;-78
2023/11/21 07:44:37;;;;;;;14.20;9.10;;;;;;;0.64;100.00;100729.55;105983;1253;73039;-77
2023/11/21 07:47:04;;;;;;;16.70;10.90;;;;;;;0.62;100.00;100730.25;105959;1252;61449;-79
2023/11/21 07:49:31;;;;;;;12.50;9.10;;;;;;;0.61;100.00;100735.94;105901;1256;72682;-77
2023/11/21 07:51:58;;;;;;;12.80;10.10;;;;;;;0.59;100.00;100737.70;105963;1258;61220;-78
2023/11/21 07:54:25;;;;;;;14.00;10.10;;;;;;;0.60;100.00;100741.98;105990;1256;59626;-78
2023/11/21 07:56:52;;;;;;;11.90;9.40;;;;;;;0.66;100.00;100751.86;106064;1252;71684;-78
2023/11/21 07:59:20;;;;;;;13.40;8.90;;;;;;;0.71;100.00;100751.41;105983;1256;63805;-78
2023/11/21 08:01:47;;;;;;;11.80;9.20;;;;;;;0.76;100.00;100757.19;105943;1256;71137;-79
2023/11/21 08:04:15;;;;;;;12.20;9.10;;;;;;;0.77;100.00;100761.12;105990;1256;61035;-77
2023/11/21 08:06:41;;;;;;;11.00;8.10;;;;;;;0.70;100.00;100762.46;106012;1252;60289;-78
2023/11/21 08:09:11;;;;;;;12.40;8.80;;;;;;;0.58;100.00;100760.44;105942;1253;72035;-78
2023/11/21 08:11:39;;;;;;;11.30;7.70;;;;;;;0.49;100.00;100756.61;105859;1256;64010;-80
2023/11/21 08:14:06;;;;;;;12.70;8.90;;;;;;;0.45;100.00;100759.09;106003;1256;72602;-78
2023/11/21 08:16:33;;;;;;;12.30;9.10;;;;;;;0.38;100.00;100768.65;106244;1256;61152;-78
2023/11/21 08:19:00;;;;;;;14.70;8.70;;;;;;;0.35;100.00;100768.19;105923;1251;60385;-79
2023/11/21 08:21:28;;;;;;;13.70;9.60;;;;;;;0.39;100.00;100764.86;106099;1253;72393;-77
2023/11/21 08:23:55;;;;;;;10.90;8.90;;;;;;;0.38;100.00;100762.13;105999;1256;65105;-78
2023/11/21 08:26:23;;;;;;;10.60;8.70;;;;;;;0.38;100.00;100764.53;105850;1257;74150;-78
2023/11/21 08:28:52;;;;;;;14.10;9.30;;;;;;;0.42;100.00;100762.58;106031;1258;61226;-79
2023/11/21 08:31:26;;;;;;;13.30;9.20;;;;;;;0.45;100.00;100764.41;105947;1256;60077;-79
2023/11/21 08:33:56;;;;;;;11.70;8.70;;;;;;;0.43;100.00;100763.60;106213;1253;73032;-80
2023/11/21 08:36:24;;;;;;;11.30;8.40;;;;;;;0.43;100.00;100763.77;106226;1253;63870;-76
2023/11/21 08:38:54;;;;;;;13.00;8.30;;;;;;;0.46;100.00;100764.06;106128;1248;71047;-80
2023/11/21 08:41:21;;;;;;;13.50;8.60;;;;;;;0.53;100.00;100759.65;106206;1253;61087;-77
2023/11/21 08:43:50;;;;;;;13.80;9.10;;;;;;;0.58;100.00;100755.08;106275;1248;60003;-79
2023/11/21 08:46:17;;;;;;;12.50;9.20;;;;;;;0.63;100.00;100750.54;106276;1248;71528;-79
2023/11/21 08:48:44;;;;;;;14.20;8.60;;;;;;;0.71;100.00;100744.20;106118;1248;63290;-78
2023/11/21 08:51:12;;;;;;;9.80;7.50;;;;;;;0.73;100.00;100737.96;106166;1249;72711;-79
2023/11/21 08:53:39;;;;;;;10.90;8.40;;;;;;;0.72;100.00;100738.16;106223;1248;59707;-79
2023/11/21 08:56:07;;;;;;;10.80;8.20;;;;;;;0.71;100.00;100739.89;106155;1251;60155;-78
2023/11/21 08:58:33;;;;;;;12.70;7.90;;;;;;;0.73;100.00;100739.69;106173;1249;72948;-77
2023/11/21 09:01:01;;;;;;;10.30;7.60;;;;;;;0.77;100.00;100746.15;106199;1254;63964;-78
2023/11/21 09:03:28;;;;;;;14.10;8.60;;;;;;;0.80;100.00;100751.62;106172;1254;72685;-78
2023/11/21 09:05:55;;;;;;;11.70;8.00;;;;;;;0.77;100.00;100754.08;106383;1254;61173;-78
2023/11/21 09:08:23;;;;;;;13.20;7.60;;;;;;;0.74;100.00;100757.57;106337;1254;60091;-78
2023/11/21 09:10:50;;;;;;;8.20;6.20;;;;;;;0.69;100.00;100758.52;106332;1254;73223;-78
2023/11/21 09:13:17;;;;;;;10.30;7.10;;;;;;;0.60;100.00;100760.22;106337;1253;63564;-79
2023/11/21 09:15:46;;;;;;;10.50;7.40;;;;;;;0.52;100.00;100757.59;106088;1256;71916;-79
2023/11/21 09:18:13;;;;;;;11.80;7.80;;;;;;;0.47;100.00;100758.02;106324;1253;60136;-76
2023/11/21 09:20:41;;;;;;;9.60;6.90;;;;;;;0.47;100.00;100764.03;106190;1254;59707;-79
2023/11/21 09:23:08;;;;;;;9.50;7.40;;;;;;;0.52;100.00;100767.41;106197;1251;73036;-78
2023/11/21 09:25:37;;;;;;;10.50;7.00;;;;;;;0.58;100.00;100764.55;106362;1252;61831;-79
2023/11/21 09:28:07;;;;;;;8.60;6.70;;;;;;;0.59;100.00;100763.50;106047;1254;72000;-79
2023/11/21 09:30:35;;;;;;;8.60;6.60;;;;;;;0.58;100.00;100769.72;106158;1253;61329;-78
2023/11/21 09:33:02;;;;;;;10.70;6.80;;;;;;;0.50;100.00;100765.52;106163;1254;60312;-79
2023/11/21 09:35:29;;;;;;;8.30;5.50;;;;;;;0.39;100.00;100762.64;106173;1253;74768;-79
2023/11/21 09:37:56;;;;;;;6.70;5.10;;;;;;;0.30;100.00;100762.25;106193;1249;62122;-79
2023/11/21 09:40:23;;;;;;;8.20;5.40;;;;;;;0.24;100.00;100762.86;106224;1254;72926;-79
2023/11/21 09:42:57;;;;;;;7.60;5.90;;;;;;;0.22;100.00;100761.34;106130;1254;62271;-78
2023/11/21 09:45:26;;;;;;;10.40;6.70;;;;;;;0.23;100.00;100761.48;106341;1252;59613;-78
2023/11/21 09:47:57;;;;;;;9.10;6.20;;;;;;;0.23;100.00;100765.29;106293;1248;72774;-81
2023/11/21 09:50:26;;;;;;;12.80;7.30;;;;;;;0.21;100.00;100764.45;106330;1248;62823;-79
2023/11/21 09:53:06;;;;;;;9.20;6.50;;;;;;;0.24;100.00;100766.11;106324;1248;72689;-78
2023/11/21 09:55:36;;;;;;;10.20;6.90;;;;;;;0.33;100.00;100762.36;106519;1253;60787;-79
2023/11/21 09:58:07;;;;;;;9.30;6.50;;;;;;;0.36;100.00;100769.54;107006;1248;59931;-80
2023/11/21 10:00:35;;;;;;;12.60;7.70;;;;;;;0.31;100.00;100774.43;109335;1247;71970;-80
2023/11/21 10:03:03;;;;;;;8.40;6.80;;;;;;;0.28;100.00;100772.42;107308;1257;62496;-80
2023/11/21 10:05:34;;;;;;;8.10;6.80;;;;;;;0.32;100.00;100775.98;106137;1249;71448;-78
2023/11/21 10:08:01;;;;;;;9.40;6.90;;;;;;;0.37;100.00;100779.16;106281;1254;61188;-79
2023/11/21 10:10:28;;;;;;;10.20;7.20;;;;;;;0.40;100.00;100783.07;106170;1247;59812;-79
2023/11/21 10:12:56;;;;;;;7.60;5.60;;;;;;;0.42;100.00;100785.28;106069;1256;72688;-80
2023/11/21 10:15:27;;;;;;;7.70;5.90;;;;;;;0.47;100.00;100782.96;106364;1253;63812;-79
2023/11/21 10:17:55;;;;;;;8.60;6.60;;;;;;;0.48;100.00;100783.80;106218;1248;72974;-79
2023/11/21 10:20:24;;;;;;;8.90;6.40;;;;;;;0.45;100.00;100789.86;106330;1253;61086;-78
2023/11/21 10:22:51;;;;;;;8.60;6.50;;;;;;;0.44;100.00;100787.30;106246;1253;61312;-79
2023/11/21 10:25:20;;;;;;;8.60;6.60;;;;;;;0.41;100.00;100795.26;106199;1248;74108;-79
2023/11/21 10:27:50;;;;;;;10.00;7.40;;;;;;;0.38;100.00;100802.18;106126;1254;63947;-79
2023/11/21 10:30:17;;;;;;;9.60;6.90;;;;;;;0.35;100.00;100801.20;106315;1248;72971;-77
2023/11/21 10:32:46;;;;;;;10.30;7.60;;;;;;;0.35;100.00;100799.14;106290;1252;61181;-80
2023/11/21 10:35:13;;;;;;;11.20;7.90;;;;;;;0.38;100.00;100803.20;106326;1249;60222;-79
2023/11/21 10:37:40;;;;;;;11.20;7.60;;;;;;;0.43;100.00;100806.05;106187;1252;73116;-79
2023/11/21 10:40:11;;;;;;;10.90;7.80;;;;;;;0.47;100.00;100803.42;106282;1253;63779;-78
2023/11/21 10:42:40;;;;;;;10.80;7.70;;;;;;;0.53;100.00;100803.67;106324;1253;72300;-78
2023/11/21 10:45:13;;;;;;;9.30;7.30;;;;;;;0.59;100.00;100807.89;106548;1252;62154;-78
2023/11/21 10:47:44;;;;;;;12.00;7.60;;;;;;;0.67;100.00;100813.96;106241;1250;59726;-80
2023/11/21 10:50:11;;;;;;;9.90;6.90;;;;;;;0.75;100.00;100817.10;106343;1248;73931;-79
2023/11/21 10:52:47;;;;;;;9.30;6.70;;;;;;;0.88;100.00;100818.41;106281;1249;63034;-80
2023/11/21 10:55:24;;;;;;;7.90;6.50;;;;;;;1.03;100.00;100824.19;106299;1254;72633;-78
2023/11/21 10:57:53;;;;;;;11.10;7.90;;;;;;;1.15;100.00;100820.55;106289;1249;59967;-80
2023/11/21 11:00:21;;;;;;;10.30;7.80;;;;;;;1.22;100.00;100818.52;106267;1254;59708;-80
2023/11/21 11:02:52;;;;;;;12.20;8.70;;;;;;;1.29;100.00;100818.56;106054;1254;73957;-80
2023/11/21 11:05:20;;;;;;;11.50;7.80;;;;;;;1.31;100.00;100821.29;106208;1254;62468;-80
2023/11/21 11:07:48;;;;;;;10.40;8.60;;;;;;;1.33;100.00;100823.66;106289;1254;72894;-76
2023/11/21 11:10:15;;;;;;;11.50;8.70;;;;;;;1.36;100.00;100825.16;106257;1253;60190;-77
2023/11/21 11:12:43;;;;;;;8.90;6.70;;;;;;;1.31;100.00;100823.70;106302;1253;60378;-77
2023/11/21 11:15:10;;;;;;;11.20;7.50;;;;;;;1.24;100.00;100825.72;106114;1251;73119;-78
2023/11/21 11:17:41;;;;;;;10.70;8.00;;;;;;;1.15;100.00;100825.70;106225;1254;64146;-79
2023/11/21 11:20:11;;;;;;;10.40;8.30;;;;;;;1.09;100.00;100828.05;106368;1254;72299;-79
2023/11/21 11:23:11;;;;;;;12.40;8.50;;;;;;;1.10;100.00;100831.31;106469;1254;60442;-78